sensor_id;sensor_type;location;lat;lon;timestamp;P1;durP1;ratioP1;P2;durP2;ratioP2
9214;SDS011;4642;51.364;6.788;2024-02-26T00:00:33;3.53;;;1.40;;
9214;SDS011;4642;51.364;6.788;2024-02-26T00:02:59;2.13;;;1.60;;
9214;SDS011;4642;51.364;6.788;2024-02-26T00:05:25;1.80;;;1.30;;
9214;SDS011;4642;51.364;6.788;2024-02-26T00:07:51;2.17;;;1.33;;
9214;SDS011;4642;51.364;6.788;2024-02-26T00:10:16;1.97;;;1.40;;
9214;SDS011;4642;51.364;6.788;2024-02-26T00:12:42;2.93;;;1.30;;
9214;SDS011;4642;51.364;6.788;2024-02-26T00:15:07;1.93;;;1.53;;
9214;SDS011;4642;51.364;6.788;2024-02-26T00:17:34;4.27;;;1.40;;
9214;SDS011;4642;51.364;6.788;2024-02-26T00:19:59;1.80;;;1.20;;
9214;SDS011;4642;51.364;6.788;2024-02-26T00:22:26;3.03;;;1.23;;
9214;SDS011;4642;51.364;6.788;2024-02-26T00:24:51;2.60;;;1.30;;
9214;SDS011;4642;51.364;6.788;2024-02-26T00:27:17;2.43;;;1.40;;
9214;SDS011;4642;51.364;6.788;2024-02-26T00:29:43;2.13;;;1.20;;
9214;SDS011;4642;51.364;6.788;2024-02-26T00:32:08;4.10;;;1.57;;
9214;SDS011;4642;51.364;6.788;2024-02-26T00:34:34;2.23;;;1.40;;
9214;SDS011;4642;51.364;6.788;2024-02-26T00:36:59;3.27;;;1.20;;
9214;SDS011;4642;51.364;6.788;2024-02-26T00:39:25;2.13;;;1.40;;
9214;SDS011;4642;51.364;6.788;2024-02-26T00:41:50;3.03;;;1.33;;
9214;SDS011;4642;51.364;6.788;2024-02-26T00:44:16;2.20;;;1.30;;
9214;SDS011;4642;51.364;6.788;2024-02-26T00:46:42;2.37;;;1.13;;
9214;SDS011;4642;51.364;6.788;2024-02-26T00:49:08;2.27;;;1.30;;
9214;SDS011;4642;51.364;6.788;2024-02-26T00:51:33;2.17;;;1.13;;
9214;SDS011;4642;51.364;6.788;2024-02-26T00:53:59;2.90;;;1.20;;
9214;SDS011;4642;51.364;6.788;2024-02-26T00:56:24;1.43;;;1.00;;
9214;SDS011;4642;51.364;6.788;2024-02-26T00:58:50;1.80;;;1.00;;
9214;SDS011;4642;51.364;6.788;2024-02-26T01:01:16;1.80;;;1.10;;
9214;SDS011;4642;51.364;6.788;2024-02-26T01:03:42;2.97;;;1.20;;
9214;SDS011;4642;51.364;6.788;2024-02-26T01:06:07;1.53;;;1.30;;
9214;SDS011;4642;51.364;6.788;2024-02-26T01:08:33;2.03;;;1.40;;
9214;SDS011;4642;51.364;6.788;2024-02-26T01:11:00;5.13;;;1.27;;
9214;SDS011;4642;51.364;6.788;2024-02-26T01:13:26;2.77;;;1.13;;
9214;SDS011;4642;51.364;6.788;2024-02-26T01:15:51;1.87;;;1.17;;
9214;SDS011;4642;51.364;6.788;2024-02-26T01:18:17;1.93;;;1.23;;
9214;SDS011;4642;51.364;6.788;2024-02-26T01:20:43;3.57;;;1.10;;
9214;SDS011;4642;51.364;6.788;2024-02-26T01:23:08;3.07;;;1.10;;
9214;SDS011;4642;51.364;6.788;2024-02-26T01:25:34;2.27;;;0.77;;
9214;SDS011;4642;51.364;6.788;2024-02-26T01:27:59;2.40;;;1.33;;
9214;SDS011;4642;51.364;6.788;2024-02-26T01:30:25;4.93;;;1.90;;
9214;SDS011;4642;51.364;6.788;2024-02-26T01:32:50;1.20;;;1.00;;
9214;SDS011;4642;51.364;6.788;2024-02-26T01:35:16;3.03;;;1.33;;
9214;SDS011;4642;51.364;6.788;2024-02-26T01:37:41;1.20;;;0.97;;
9214;SDS011;4642;51.364;6.788;2024-02-26T01:40:07;2.23;;;1.20;;
9214;SDS011;4642;51.364;6.788;2024-02-26T01:42:34;2.67;;;1.13;;
9214;SDS011;4642;51.364;6.788;2024-02-26T01:45:02;2.00;;;1.20;;
9214;SDS011;4642;51.364;6.788;2024-02-26T01:47:29;2.07;;;1.00;;
9214;SDS011;4642;51.364;6.788;2024-02-26T01:49:54;1.93;;;1.33;;
9214;SDS011;4642;51.364;6.788;2024-02-26T01:52:20;2.03;;;1.20;;
9214;SDS011;4642;51.364;6.788;2024-02-26T01:54:46;5.03;;;1.20;;
9214;SDS011;4642;51.364;6.788;2024-02-26T01:57:12;2.87;;;1.27;;
9214;SDS011;4642;51.364;6.788;2024-02-26T01:59:39;1.13;;;0.87;;
9214;SDS011;4642;51.364;6.788;2024-02-26T02:02:05;2.20;;;1.00;;
9214;SDS011;4642;51.364;6.788;2024-02-26T02:04:34;2.03;;;1.10;;
9214;SDS011;4642;51.364;6.788;2024-02-26T02:07:00;1.47;;;1.10;;
9214;SDS011;4642;51.364;6.788;2024-02-26T02:09:27;1.20;;;0.80;;
9214;SDS011;4642;51.364;6.788;2024-02-26T02:11:53;2.33;;;1.07;;
9214;SDS011;4642;51.364;6.788;2024-02-26T02:14:19;1.53;;;1.10;;
9214;SDS011;4642;51.364;6.788;2024-02-26T02:16:44;2.37;;;1.20;;
9214;SDS011;4642;51.364;6.788;2024-02-26T02:19:11;1.87;;;1.07;;
9214;SDS011;4642;51.364;6.788;2024-02-26T02:21:36;3.60;;;1.30;;
9214;SDS011;4642;51.364;6.788;2024-02-26T02:24:02;2.37;;;0.93;;
9214;SDS011;4642;51.364;6.788;2024-02-26T02:26:27;1.10;;;1.00;;
9214;SDS011;4642;51.364;6.788;2024-02-26T02:28:53;2.97;;;1.13;;
9214;SDS011;4642;51.364;6.788;2024-02-26T02:31:18;1.50;;;1.00;;
9214;SDS011;4642;51.364;6.788;2024-02-26T02:33:44;3.13;;;1.20;;
9214;SDS011;4642;51.364;6.788;2024-02-26T02:36:10;3.27;;;1.13;;
9214;SDS011;4642;51.364;6.788;2024-02-26T02:38:36;2.23;;;1.00;;
9214;SDS011;4642;51.364;6.788;2024-02-26T02:41:03;1.33;;;0.90;;
9214;SDS011;4642;51.364;6.788;2024-02-26T02:43:28;2.17;;;0.93;;
9214;SDS011;4642;51.364;6.788;2024-02-26T02:45:54;1.23;;;0.80;;
9214;SDS011;4642;51.364;6.788;2024-02-26T02:48:19;1.70;;;1.20;;
9214;SDS011;4642;51.364;6.788;2024-02-26T02:50:45;1.90;;;0.93;;
9214;SDS011;4642;51.364;6.788;2024-02-26T02:53:10;5.57;;;1.03;;
9214;SDS011;4642;51.364;6.788;2024-02-26T02:55:36;1.90;;;1.00;;
9214;SDS011;4642;51.364;6.788;2024-02-26T02:58:02;1.20;;;0.93;;
9214;SDS011;4642;51.364;6.788;2024-02-26T03:00:27;3.40;;;1.20;;
9214;SDS011;4642;51.364;6.788;2024-02-26T03:02:53;1.60;;;0.90;;
9214;SDS011;4642;51.364;6.788;2024-02-26T03:05:18;1.63;;;1.20;;
9214;SDS011;4642;51.364;6.788;2024-02-26T03:07:44;3.70;;;1.17;;
9214;SDS011;4642;51.364;6.788;2024-02-26T03:10:09;2.33;;;1.07;;
9214;SDS011;4642;51.364;6.788;2024-02-26T03:12:35;1.20;;;1.00;;
9214;SDS011;4642;51.364;6.788;2024-02-26T03:15:01;2.60;;;1.10;;
9214;SDS011;4642;51.364;6.788;2024-02-26T03:17:28;3.00;;;1.00;;
9214;SDS011;4642;51.364;6.788;2024-02-26T03:19:54;2.40;;;1.10;;
9214;SDS011;4642;51.364;6.788;2024-02-26T03:22:19;1.50;;;1.10;;
9214;SDS011;4642;51.364;6.788;2024-02-26T03:24:45;3.57;;;1.17;;
9214;SDS011;4642;51.364;6.788;2024-02-26T03:27:11;1.77;;;1.10;;
9214;SDS011;4642;51.364;6.788;2024-02-26T03:29:37;3.77;;;1.40;;
9214;SDS011;4642;51.364;6.788;2024-02-26T03:32:03;2.20;;;1.20;;
9214;SDS011;4642;51.364;6.788;2024-02-26T03:34:29;1.73;;;1.30;;
9214;SDS011;4642;51.364;6.788;2024-02-26T03:36:55;2.17;;;1.33;;
9214;SDS011;4642;51.364;6.788;2024-02-26T03:39:21;1.73;;;1.60;;
9214;SDS011;4642;51.364;6.788;2024-02-26T03:41:47;1.70;;;1.30;;
9214;SDS011;4642;51.364;6.788;2024-02-26T03:44:13;3.00;;;1.47;;
9214;SDS011;4642;51.364;6.788;2024-02-26T03:46:38;2.60;;;1.27;;
9214;SDS011;4642;51.364;6.788;2024-02-26T03:49:04;2.47;;;1.50;;
9214;SDS011;4642;51.364;6.788;2024-02-26T03:51:29;2.63;;;1.50;;
9214;SDS011;4642;51.364;6.788;2024-02-26T03:53:59;3.63;;;1.90;;
9214;SDS011;4642;51.364;6.788;2024-02-26T03:56:25;2.60;;;1.53;;
9214;SDS011;4642;51.364;6.788;2024-02-26T03:58:52;2.07;;;1.60;;
9214;SDS011;4642;51.364;6.788;2024-02-26T04:01:17;1.63;;;1.40;;
9214;SDS011;4642;51.364;6.788;2024-02-26T04:03:43;3.37;;;1.67;;
9214;SDS011;4642;51.364;6.788;2024-02-26T04:06:09;2.33;;;2.00;;
9214;SDS011;4642;51.364;6.788;2024-02-26T04:08:44;2.67;;;1.63;;
9214;SDS011;4642;51.364;6.788;2024-02-26T04:11:10;1.70;;;1.40;;
9214;SDS011;4642;51.364;6.788;2024-02-26T04:13:36;3.67;;;1.80;;
9214;SDS011;4642;51.364;6.788;2024-02-26T04:16:05;4.00;;;1.90;;
9214;SDS011;4642;51.364;6.788;2024-02-26T04:18:31;2.60;;;1.60;;
9214;SDS011;4642;51.364;6.788;2024-02-26T04:20:57;2.33;;;1.70;;
9214;SDS011;4642;51.364;6.788;2024-02-26T04:23:23;3.30;;;1.57;;
9214;SDS011;4642;51.364;6.788;2024-02-26T04:25:48;2.23;;;1.60;;
9214;SDS011;4642;51.364;6.788;2024-02-26T04:28:14;3.53;;;1.63;;
9214;SDS011;4642;51.364;6.788;2024-02-26T04:30:40;2.10;;;1.70;;
9214;SDS011;4642;51.364;6.788;2024-02-26T04:33:06;5.10;;;2.00;;
9214;SDS011;4642;51.364;6.788;2024-02-26T04:35:31;4.63;;;2.30;;
9214;SDS011;4642;51.364;6.788;2024-02-26T04:37:57;3.33;;;1.90;;
9214;SDS011;4642;51.364;6.788;2024-02-26T04:40:23;2.90;;;2.10;;
9214;SDS011;4642;51.364;6.788;2024-02-26T04:42:49;2.40;;;1.90;;
9214;SDS011;4642;51.364;6.788;2024-02-26T04:45:14;3.13;;;2.10;;
9214;SDS011;4642;51.364;6.788;2024-02-26T04:47:40;3.83;;;2.00;;
9214;SDS011;4642;51.364;6.788;2024-02-26T04:50:06;3.03;;;1.83;;
9214;SDS011;4642;51.364;6.788;2024-02-26T04:52:31;2.97;;;1.90;;
9214;SDS011;4642;51.364;6.788;2024-02-26T04:54:57;2.80;;;1.97;;
9214;SDS011;4642;51.364;6.788;2024-02-26T04:57:24;2.87;;;2.10;;
9214;SDS011;4642;51.364;6.788;2024-02-26T04:59:51;2.50;;;1.90;;
9214;SDS011;4642;51.364;6.788;2024-02-26T05:02:16;4.80;;;2.10;;
9214;SDS011;4642;51.364;6.788;2024-02-26T05:04:42;2.47;;;1.90;;
9214;SDS011;4642;51.364;6.788;2024-02-26T05:07:08;3.03;;;1.90;;
9214;SDS011;4642;51.364;6.788;2024-02-26T05:09:34;2.37;;;2.00;;
9214;SDS011;4642;51.364;6.788;2024-02-26T05:11:59;2.90;;;2.10;;
9214;SDS011;4642;51.364;6.788;2024-02-26T05:14:25;3.33;;;2.33;;
9214;SDS011;4642;51.364;6.788;2024-02-26T05:16:50;8.73;;;2.30;;
9214;SDS011;4642;51.364;6.788;2024-02-26T05:19:16;4.10;;;2.27;;
9214;SDS011;4642;51.364;6.788;2024-02-26T05:21:42;4.80;;;2.00;;
9214;SDS011;4642;51.364;6.788;2024-02-26T05:24:09;2.37;;;2.17;;
9214;SDS011;4642;51.364;6.788;2024-02-26T05:26:34;2.43;;;2.23;;
9214;SDS011;4642;51.364;6.788;2024-02-26T05:29:00;2.73;;;2.23;;
9214;SDS011;4642;51.364;6.788;2024-02-26T05:31:26;3.93;;;2.13;;
9214;SDS011;4642;51.364;6.788;2024-02-26T05:33:52;3.20;;;2.10;;
9214;SDS011;4642;51.364;6.788;2024-02-26T05:36:18;4.77;;;2.20;;
9214;SDS011;4642;51.364;6.788;2024-02-26T05:38:46;4.40;;;2.40;;
9214;SDS011;4642;51.364;6.788;2024-02-26T05:41:11;3.87;;;2.27;;
9214;SDS011;4642;51.364;6.788;2024-02-26T05:43:37;3.63;;;2.00;;
9214;SDS011;4642;51.364;6.788;2024-02-26T05:46:03;2.97;;;2.03;;
9214;SDS011;4642;51.364;6.788;2024-02-26T05:48:28;3.47;;;2.20;;
9214;SDS011;4642;51.364;6.788;2024-02-26T05:50:54;3.70;;;2.47;;
9214;SDS011;4642;51.364;6.788;2024-02-26T05:53:19;5.43;;;2.23;;
9214;SDS011;4642;51.364;6.788;2024-02-26T05:55:45;2.97;;;2.43;;
9214;SDS011;4642;51.364;6.788;2024-02-26T05:58:10;2.93;;;2.10;;
9214;SDS011;4642;51.364;6.788;2024-02-26T06:00:36;3.80;;;2.20;;
9214;SDS011;4642;51.364;6.788;2024-02-26T06:03:01;3.60;;;2.10;;
9214;SDS011;4642;51.364;6.788;2024-02-26T06:05:27;2.10;;;1.90;;
9214;SDS011;4642;51.364;6.788;2024-02-26T06:07:52;2.80;;;2.50;;
9214;SDS011;4642;51.364;6.788;2024-02-26T06:10:18;2.33;;;2.10;;
9214;SDS011;4642;51.364;6.788;2024-02-26T06:12:46;3.57;;;2.23;;
9214;SDS011;4642;51.364;6.788;2024-02-26T06:15:12;4.40;;;2.40;;
9214;SDS011;4642;51.364;6.788;2024-02-26T06:17:37;2.63;;;2.30;;
9214;SDS011;4642;51.364;6.788;2024-02-26T06:20:03;2.93;;;2.33;;
9214;SDS011;4642;51.364;6.788;2024-02-26T06:22:31;2.90;;;2.07;;
9214;SDS011;4642;51.364;6.788;2024-02-26T06:24:56;4.23;;;2.60;;
9214;SDS011;4642;51.364;6.788;2024-02-26T06:27:22;4.07;;;2.50;;
9214;SDS011;4642;51.364;6.788;2024-02-26T06:29:48;4.30;;;2.53;;
9214;SDS011;4642;51.364;6.788;2024-02-26T06:32:14;3.60;;;2.40;;
9214;SDS011;4642;51.364;6.788;2024-02-26T06:34:40;3.57;;;2.70;;
9214;SDS011;4642;51.364;6.788;2024-02-26T06:37:07;3.13;;;2.50;;
9214;SDS011;4642;51.364;6.788;2024-02-26T06:39:33;3.27;;;2.70;;
9214;SDS011;4642;51.364;6.788;2024-02-26T06:41:59;4.63;;;2.63;;
9214;SDS011;4642;51.364;6.788;2024-02-26T06:44:28;5.03;;;2.47;;
9214;SDS011;4642;51.364;6.788;2024-02-26T06:47:00;3.13;;;2.83;;
9214;SDS011;4642;51.364;6.788;2024-02-26T06:49:26;4.30;;;2.30;;
9214;SDS011;4642;51.364;6.788;2024-02-26T06:51:52;3.30;;;2.70;;
9214;SDS011;4642;51.364;6.788;2024-02-26T06:54:18;3.27;;;2.60;;
9214;SDS011;4642;51.364;6.788;2024-02-26T06:56:43;4.53;;;2.57;;
9214;SDS011;4642;51.364;6.788;2024-02-26T06:59:09;3.10;;;2.67;;
9214;SDS011;4642;51.364;6.788;2024-02-26T07:01:35;5.13;;;3.07;;
9214;SDS011;4642;51.364;6.788;2024-02-26T07:04:00;3.43;;;2.77;;
9214;SDS011;4642;51.364;6.788;2024-02-26T07:06:29;3.50;;;2.30;;
9214;SDS011;4642;51.364;6.788;2024-02-26T07:08:54;4.13;;;2.67;;
9214;SDS011;4642;51.364;6.788;2024-02-26T07:11:20;6.03;;;3.23;;
9214;SDS011;4642;51.364;6.788;2024-02-26T07:13:46;3.93;;;2.60;;
9214;SDS011;4642;51.364;6.788;2024-02-26T07:16:12;4.40;;;3.20;;
9214;SDS011;4642;51.364;6.788;2024-02-26T07:18:40;5.00;;;2.57;;
9214;SDS011;4642;51.364;6.788;2024-02-26T07:21:08;4.63;;;2.70;;
9214;SDS011;4642;51.364;6.788;2024-02-26T07:23:33;4.43;;;2.90;;
9214;SDS011;4642;51.364;6.788;2024-02-26T07:25:59;4.43;;;2.90;;
9214;SDS011;4642;51.364;6.788;2024-02-26T07:28:24;3.90;;;3.07;;
9214;SDS011;4642;51.364;6.788;2024-02-26T07:30:50;4.00;;;2.73;;
9214;SDS011;4642;51.364;6.788;2024-02-26T07:33:16;2.77;;;2.57;;
9214;SDS011;4642;51.364;6.788;2024-02-26T07:35:41;3.23;;;2.67;;
9214;SDS011;4642;51.364;6.788;2024-02-26T07:38:07;4.27;;;2.63;;
9214;SDS011;4642;51.364;6.788;2024-02-26T07:40:33;3.40;;;2.53;;
9214;SDS011;4642;51.364;6.788;2024-02-26T07:42:58;2.93;;;2.63;;
9214;SDS011;4642;51.364;6.788;2024-02-26T07:45:24;5.40;;;2.60;;
9214;SDS011;4642;51.364;6.788;2024-02-26T07:47:49;6.17;;;3.00;;
9214;SDS011;4642;51.364;6.788;2024-02-26T07:50:16;5.07;;;2.77;;
9214;SDS011;4642;51.364;6.788;2024-02-26T07:52:42;3.40;;;2.67;;
9214;SDS011;4642;51.364;6.788;2024-02-26T07:55:09;5.80;;;2.97;;
9214;SDS011;4642;51.364;6.788;2024-02-26T07:57:35;3.73;;;2.67;;
9214;SDS011;4642;51.364;6.788;2024-02-26T08:00:01;5.13;;;3.00;;
9214;SDS011;4642;51.364;6.788;2024-02-26T08:02:28;4.93;;;2.87;;
9214;SDS011;4642;51.364;6.788;2024-02-26T08:04:54;4.50;;;2.80;;
9214;SDS011;4642;51.364;6.788;2024-02-26T08:07:19;5.40;;;2.80;;
9214;SDS011;4642;51.364;6.788;2024-02-26T08:09:46;5.67;;;2.90;;
9214;SDS011;4642;51.364;6.788;2024-02-26T08:12:11;5.30;;;3.13;;
9214;SDS011;4642;51.364;6.788;2024-02-26T08:14:37;4.33;;;2.70;;
9214;SDS011;4642;51.364;6.788;2024-02-26T08:17:03;3.73;;;2.80;;
9214;SDS011;4642;51.364;6.788;2024-02-26T08:19:28;6.07;;;3.00;;
9214;SDS011;4642;51.364;6.788;2024-02-26T08:21:54;3.57;;;2.37;;
9214;SDS011;4642;51.364;6.788;2024-02-26T08:24:19;4.33;;;2.90;;
9214;SDS011;4642;51.364;6.788;2024-02-26T08:26:45;4.43;;;2.73;;
9214;SDS011;4642;51.364;6.788;2024-02-26T08:29:11;4.53;;;3.27;;
9214;SDS011;4642;51.364;6.788;2024-02-26T08:31:36;3.67;;;3.20;;
9214;SDS011;4642;51.364;6.788;2024-02-26T08:34:02;4.57;;;3.00;;
9214;SDS011;4642;51.364;6.788;2024-02-26T08:36:28;5.30;;;3.07;;
9214;SDS011;4642;51.364;6.788;2024-02-26T08:38:55;4.03;;;3.17;;
9214;SDS011;4642;51.364;6.788;2024-02-26T08:41:20;5.17;;;3.20;;
9214;SDS011;4642;51.364;6.788;2024-02-26T08:43:46;7.70;;;3.23;;
9214;SDS011;4642;51.364;6.788;2024-02-26T08:46:14;3.53;;;3.13;;
9214;SDS011;4642;51.364;6.788;2024-02-26T08:48:40;4.00;;;2.83;;
9214;SDS011;4642;51.364;6.788;2024-02-26T08:51:06;3.90;;;3.17;;
9214;SDS011;4642;51.364;6.788;2024-02-26T08:53:32;4.47;;;3.30;;
9214;SDS011;4642;51.364;6.788;2024-02-26T08:55:58;4.33;;;3.23;;
9214;SDS011;4642;51.364;6.788;2024-02-26T08:58:23;4.80;;;3.50;;
9214;SDS011;4642;51.364;6.788;2024-02-26T09:00:49;3.30;;;3.00;;
9214;SDS011;4642;51.364;6.788;2024-02-26T09:03:15;6.97;;;4.13;;
9214;SDS011;4642;51.364;6.788;2024-02-26T09:05:40;3.77;;;3.40;;
9214;SDS011;4642;51.364;6.788;2024-02-26T09:08:06;5.67;;;3.43;;
9214;SDS011;4642;51.364;6.788;2024-02-26T09:10:31;5.17;;;3.20;;
9214;SDS011;4642;51.364;6.788;2024-02-26T09:12:58;4.00;;;3.57;;
9214;SDS011;4642;51.364;6.788;2024-02-26T09:15:23;5.90;;;4.07;;
9214;SDS011;4642;51.364;6.788;2024-02-26T09:17:49;4.50;;;3.40;;
9214;SDS011;4642;51.364;6.788;2024-02-26T09:20:15;7.27;;;3.90;;
9214;SDS011;4642;51.364;6.788;2024-02-26T09:22:45;7.90;;;4.20;;
9214;SDS011;4642;51.364;6.788;2024-02-26T09:25:11;5.17;;;4.17;;
9214;SDS011;4642;51.364;6.788;2024-02-26T09:27:36;4.43;;;3.93;;
9214;SDS011;4642;51.364;6.788;2024-02-26T09:30:02;5.33;;;4.00;;
9214;SDS011;4642;51.364;6.788;2024-02-26T09:32:28;4.23;;;3.83;;
9214;SDS011;4642;51.364;6.788;2024-02-26T09:34:53;5.93;;;3.27;;
9214;SDS011;4642;51.364;6.788;2024-02-26T09:37:19;5.10;;;3.47;;
9214;SDS011;4642;51.364;6.788;2024-02-26T09:39:44;3.50;;;3.20;;
9214;SDS011;4642;51.364;6.788;2024-02-26T09:42:11;5.37;;;3.53;;
9214;SDS011;4642;51.364;6.788;2024-02-26T09:44:40;5.20;;;3.93;;
9214;SDS011;4642;51.364;6.788;2024-02-26T09:47:07;5.57;;;3.57;;
9214;SDS011;4642;51.364;6.788;2024-02-26T09:49:35;4.43;;;3.90;;
9214;SDS011;4642;51.364;6.788;2024-02-26T09:52:03;4.30;;;3.37;;
9214;SDS011;4642;51.364;6.788;2024-02-26T09:54:29;4.70;;;3.50;;
9214;SDS011;4642;51.364;6.788;2024-02-26T09:56:58;5.37;;;4.00;;
9214;SDS011;4642;51.364;6.788;2024-02-26T09:59:26;5.20;;;3.93;;
9214;SDS011;4642;51.364;6.788;2024-02-26T10:01:52;5.67;;;4.03;;
9214;SDS011;4642;51.364;6.788;2024-02-26T10:04:18;5.17;;;4.03;;
9214;SDS011;4642;51.364;6.788;2024-02-26T10:06:45;4.13;;;3.73;;
9214;SDS011;4642;51.364;6.788;2024-02-26T10:09:11;5.53;;;4.33;;
9214;SDS011;4642;51.364;6.788;2024-02-26T10:11:37;6.47;;;3.93;;
9214;SDS011;4642;51.364;6.788;2024-02-26T10:14:05;5.90;;;4.23;;
9214;SDS011;4642;51.364;6.788;2024-02-26T10:16:30;6.70;;;4.23;;
9214;SDS011;4642;51.364;6.788;2024-02-26T10:18:58;6.67;;;4.47;;
9214;SDS011;4642;51.364;6.788;2024-02-26T10:21:23;6.77;;;4.67;;
9214;SDS011;4642;51.364;6.788;2024-02-26T10:23:49;7.40;;;4.70;;
9214;SDS011;4642;51.364;6.788;2024-02-26T10:26:18;5.43;;;4.33;;
9214;SDS011;4642;51.364;6.788;2024-02-26T10:28:44;6.63;;;5.03;;
9214;SDS011;4642;51.364;6.788;2024-02-26T10:31:10;5.53;;;4.33;;
9214;SDS011;4642;51.364;6.788;2024-02-26T10:33:37;6.90;;;4.93;;
9214;SDS011;4642;51.364;6.788;2024-02-26T10:36:03;7.60;;;4.83;;
9214;SDS011;4642;51.364;6.788;2024-02-26T10:38:30;6.20;;;4.67;;
9214;SDS011;4642;51.364;6.788;2024-02-26T10:40:57;6.70;;;4.50;;
9214;SDS011;4642;51.364;6.788;2024-02-26T10:43:22;5.33;;;4.43;;
9214;SDS011;4642;51.364;6.788;2024-02-26T10:45:48;5.90;;;4.67;;
9214;SDS011;4642;51.364;6.788;2024-02-26T10:48:14;9.07;;;4.50;;
9214;SDS011;4642;51.364;6.788;2024-02-26T10:50:40;5.97;;;4.50;;
9214;SDS011;4642;51.364;6.788;2024-02-26T10:53:07;6.90;;;4.60;;
9214;SDS011;4642;51.364;6.788;2024-02-26T10:56:08;7.07;;;4.23;;
9214;SDS011;4642;51.364;6.788;2024-02-26T10:58:35;9.43;;;4.57;;
9214;SDS011;4642;51.364;6.788;2024-02-26T11:01:01;5.73;;;4.70;;
9214;SDS011;4642;51.364;6.788;2024-02-26T11:03:29;7.73;;;5.00;;
9214;SDS011;4642;51.364;6.788;2024-02-26T11:05:57;8.60;;;5.10;;
9214;SDS011;4642;51.364;6.788;2024-02-26T11:08:25;5.20;;;4.60;;
9214;SDS011;4642;51.364;6.788;2024-02-26T11:10:52;6.23;;;4.83;;
9214;SDS011;4642;51.364;6.788;2024-02-26T11:13:19;7.93;;;5.00;;
9214;SDS011;4642;51.364;6.788;2024-02-26T11:15:46;6.83;;;5.13;;
9214;SDS011;4642;51.364;6.788;2024-02-26T11:18:14;5.97;;;5.13;;
9214;SDS011;4642;51.364;6.788;2024-02-26T11:20:40;6.77;;;5.10;;
9214;SDS011;4642;51.364;6.788;2024-02-26T11:23:07;6.53;;;5.50;;
9214;SDS011;4642;51.364;6.788;2024-02-26T11:25:34;8.43;;;5.23;;
9214;SDS011;4642;51.364;6.788;2024-02-26T11:28:01;7.27;;;5.53;;
9214;SDS011;4642;51.364;6.788;2024-02-26T11:30:31;6.43;;;5.40;;
9214;SDS011;4642;51.364;6.788;2024-02-26T11:32:59;6.07;;;5.47;;
9214;SDS011;4642;51.364;6.788;2024-02-26T11:35:26;7.17;;;5.17;;
9214;SDS011;4642;51.364;6.788;2024-02-26T11:37:56;7.00;;;5.30;;
9214;SDS011;4642;51.364;6.788;2024-02-26T11:40:25;8.73;;;5.30;;
9214;SDS011;4642;51.364;6.788;2024-02-26T11:42:51;9.07;;;6.03;;
9214;SDS011;4642;51.364;6.788;2024-02-26T11:48:22;8.07;;;6.23;;
9214;SDS011;4642;51.364;6.788;2024-02-26T11:50:49;9.23;;;6.17;;
9214;SDS011;4642;51.364;6.788;2024-02-26T11:53:19;7.13;;;6.17;;
9214;SDS011;4642;51.364;6.788;2024-02-26T11:55:46;11.07;;;6.50;;
9214;SDS011;4642;51.364;6.788;2024-02-26T11:58:11;8.73;;;6.30;;
9214;SDS011;4642;51.364;6.788;2024-02-26T12:00:39;7.70;;;6.50;;
9214;SDS011;4642;51.364;6.788;2024-02-26T12:03:05;8.53;;;6.53;;
9214;SDS011;4642;51.364;6.788;2024-02-26T12:05:33;8.13;;;6.63;;
9214;SDS011;4642;51.364;6.788;2024-02-26T12:08:02;11.87;;;6.60;;
9214;SDS011;4642;51.364;6.788;2024-02-26T12:10:31;8.03;;;5.97;;
9214;SDS011;4642;51.364;6.788;2024-02-26T12:13:07;8.00;;;5.93;;
9214;SDS011;4642;51.364;6.788;2024-02-26T12:15:39;7.10;;;6.07;;
9214;SDS011;4642;51.364;6.788;2024-02-26T12:18:07;9.10;;;6.37;;
9214;SDS011;4642;51.364;6.788;2024-02-26T12:20:35;8.00;;;5.83;;
9214;SDS011;4642;51.364;6.788;2024-02-26T12:23:01;7.43;;;5.63;;
9214;SDS011;4642;51.364;6.788;2024-02-26T12:25:29;8.03;;;6.27;;
9214;SDS011;4642;51.364;6.788;2024-02-26T12:27:56;7.87;;;5.60;;
9214;SDS011;4642;51.364;6.788;2024-02-26T12:30:22;7.43;;;5.60;;
9214;SDS011;4642;51.364;6.788;2024-02-26T12:32:49;6.73;;;5.57;;
9214;SDS011;4642;51.364;6.788;2024-02-26T12:35:16;8.37;;;5.87;;
9214;SDS011;4642;51.364;6.788;2024-02-26T12:37:42;6.77;;;5.77;;
9214;SDS011;4642;51.364;6.788;2024-02-26T12:40:09;10.33;;;6.57;;
9214;SDS011;4642;51.364;6.788;2024-02-26T12:42:36;10.03;;;6.83;;
9214;SDS011;4642;51.364;6.788;2024-02-26T12:45:08;11.50;;;7.50;;
9214;SDS011;4642;51.364;6.788;2024-02-26T12:47:41;9.37;;;6.87;;
9214;SDS011;4642;51.364;6.788;2024-02-26T12:50:16;11.47;;;7.77;;
9214;SDS011;4642;51.364;6.788;2024-02-26T12:52:45;9.17;;;7.30;;
9214;SDS011;4642;51.364;6.788;2024-02-26T12:55:14;10.27;;;6.87;;
9214;SDS011;4642;51.364;6.788;2024-02-26T12:57:41;10.37;;;7.70;;
9214;SDS011;4642;51.364;6.788;2024-02-26T13:00:08;11.67;;;7.43;;
9214;SDS011;4642;51.364;6.788;2024-02-26T13:02:41;8.80;;;7.20;;
9214;SDS011;4642;51.364;6.788;2024-02-26T13:05:10;10.13;;;7.40;;
9214;SDS011;4642;51.364;6.788;2024-02-26T13:07:44;9.13;;;7.10;;
9214;SDS011;4642;51.364;6.788;2024-02-26T13:10:12;9.97;;;6.93;;
9214;SDS011;4642;51.364;6.788;2024-02-26T13:12:45;8.97;;;7.23;;
9214;SDS011;4642;51.364;6.788;2024-02-26T13:15:20;9.57;;;7.03;;
9214;SDS011;4642;51.364;6.788;2024-02-26T13:17:47;9.57;;;7.43;;
9214;SDS011;4642;51.364;6.788;2024-02-26T13:20:24;10.47;;;6.97;;
9214;SDS011;4642;51.364;6.788;2024-02-26T13:22:51;7.73;;;6.77;;
9214;SDS011;4642;51.364;6.788;2024-02-26T13:25:24;9.10;;;6.20;;
9214;SDS011;4642;51.364;6.788;2024-02-26T13:27:49;8.47;;;6.77;;
9214;SDS011;4642;51.364;6.788;2024-02-26T13:30:15;8.73;;;7.00;;
9214;SDS011;4642;51.364;6.788;2024-02-26T13:32:41;6.73;;;6.03;;
9214;SDS011;4642;51.364;6.788;2024-02-26T13:35:08;7.13;;;5.77;;
9214;SDS011;4642;51.364;6.788;2024-02-26T13:37:35;6.57;;;5.60;;
9214;SDS011;4642;51.364;6.788;2024-02-26T13:40:08;8.27;;;5.57;;
9214;SDS011;4642;51.364;6.788;2024-02-26T13:42:35;8.67;;;5.77;;
9214;SDS011;4642;51.364;6.788;2024-02-26T13:45:01;6.63;;;5.30;;
9214;SDS011;4642;51.364;6.788;2024-02-26T13:47:27;6.80;;;5.87;;
9214;SDS011;4642;51.364;6.788;2024-02-26T13:49:53;7.47;;;5.20;;
9214;SDS011;4642;51.364;6.788;2024-02-26T13:52:18;6.60;;;5.07;;
9214;SDS011;4642;51.364;6.788;2024-02-26T13:54:45;7.97;;;5.57;;
9214;SDS011;4642;51.364;6.788;2024-02-26T13:57:11;8.20;;;4.73;;
9214;SDS011;4642;51.364;6.788;2024-02-26T13:59:37;6.57;;;5.40;;
9214;SDS011;4642;51.364;6.788;2024-02-26T14:02:06;6.10;;;5.10;;
9214;SDS011;4642;51.364;6.788;2024-02-26T14:04:32;7.83;;;4.97;;
9214;SDS011;4642;51.364;6.788;2024-02-26T14:06:57;5.40;;;4.67;;
9214;SDS011;4642;51.364;6.788;2024-02-26T14:09:23;7.13;;;4.87;;
9214;SDS011;4642;51.364;6.788;2024-02-26T14:11:48;5.03;;;3.80;;
9214;SDS011;4642;51.364;6.788;2024-02-26T14:14:14;5.23;;;4.50;;
9214;SDS011;4642;51.364;6.788;2024-02-26T14:16:40;4.20;;;3.80;;
9214;SDS011;4642;51.364;6.788;2024-02-26T14:19:05;7.47;;;4.80;;
9214;SDS011;4642;51.364;6.788;2024-02-26T14:21:31;5.33;;;3.90;;
9214;SDS011;4642;51.364;6.788;2024-02-26T14:23:56;5.43;;;3.77;;
9214;SDS011;4642;51.364;6.788;2024-02-26T14:26:22;4.90;;;3.67;;
9214;SDS011;4642;51.364;6.788;2024-02-26T14:28:48;4.63;;;3.77;;
9214;SDS011;4642;51.364;6.788;2024-02-26T14:31:17;5.70;;;3.67;;
9214;SDS011;4642;51.364;6.788;2024-02-26T14:33:42;3.90;;;3.23;;
9214;SDS011;4642;51.364;6.788;2024-02-26T14:36:08;5.23;;;3.30;;
9214;SDS011;4642;51.364;6.788;2024-02-26T14:38:34;4.63;;;3.43;;
9214;SDS011;4642;51.364;6.788;2024-02-26T14:41:00;4.67;;;3.20;;
9214;SDS011;4642;51.364;6.788;2024-02-26T14:43:27;4.00;;;3.40;;
9214;SDS011;4642;51.364;6.788;2024-02-26T14:45:52;4.00;;;3.30;;
9214;SDS011;4642;51.364;6.788;2024-02-26T14:48:18;4.27;;;3.40;;
9214;SDS011;4642;51.364;6.788;2024-02-26T14:50:43;6.67;;;3.80;;
9214;SDS011;4642;51.364;6.788;2024-02-26T14:53:09;3.83;;;3.37;;
9214;SDS011;4642;51.364;6.788;2024-02-26T14:55:34;5.80;;;3.77;;
9214;SDS011;4642;51.364;6.788;2024-02-26T14:58:00;5.13;;;3.73;;
9214;SDS011;4642;51.364;6.788;2024-02-26T15:00:25;7.27;;;3.70;;
9214;SDS011;4642;51.364;6.788;2024-02-26T15:02:51;4.27;;;3.67;;
9214;SDS011;4642;51.364;6.788;2024-02-26T15:05:17;5.20;;;3.70;;
9214;SDS011;4642;51.364;6.788;2024-02-26T15:07:44;5.20;;;3.70;;
9214;SDS011;4642;51.364;6.788;2024-02-26T15:10:10;6.77;;;3.77;;
9214;SDS011;4642;51.364;6.788;2024-02-26T15:12:36;5.07;;;3.83;;